createdAt,value
2017-06-22T00:01:51.117Z,18.07
2017-06-22T00:04:18.149Z,20.20
2017-06-22T00:06:44.625Z,19.10
2017-06-22T00:09:11.167Z,19.27
2017-06-22T00:11:37.589Z,19.23
2017-06-22T00:14:04.041Z,19.77
2017-06-22T00:16:30.857Z,18.47
2017-06-22T00:18:57.288Z,19.30
2017-06-22T00:21:23.711Z,18.43
2017-06-22T00:23:50.155Z,18.20
2017-06-22T00:26:16.716Z,21.03
2017-06-22T00:28:43.452Z,18.77
2017-06-22T00:31:10.014Z,20.07
2017-06-22T00:33:36.443Z,19.50
2017-06-22T00:36:02.853Z,19.77
2017-06-22T00:38:29.368Z,19.10
2017-06-22T00:40:55.781Z,19.10
2017-06-22T00:43:22.177Z,19.37
2017-06-22T00:45:48.652Z,19.20
2017-06-22T00:48:15.500Z,19.20
2017-06-22T00:50:42.296Z,20.07
2017-06-22T00:53:09.626Z,18.90
2017-06-22T00:55:36.073Z,19.20
2017-06-22T00:58:02.529Z,19.20
2017-06-22T01:00:28.921Z,19.80
2017-06-22T01:02:55.341Z,19.90
2017-06-22T01:05:22.035Z,20.47
2017-06-22T01:07:48.817Z,18.47
2017-06-22T01:10:15.256Z,18.83
2017-06-22T01:12:41.696Z,19.53
2017-06-22T01:15:08.164Z,18.40
2017-06-22T01:17:34.719Z,18.67
2017-06-22T01:20:02.043Z,18.90
2017-06-22T01:22:28.455Z,18.80
2017-06-22T01:24:54.996Z,18.30
2017-06-22T01:27:21.589Z,18.57
2017-06-22T01:29:48.893Z,18.30
2017-06-22T01:32:15.400Z,19.73
2017-06-22T01:34:42.224Z,19.40
2017-06-22T01:37:08.748Z,18.17
2017-06-22T01:39:35.908Z,19.97
2017-06-22T01:42:02.347Z,18.67
2017-06-22T01:44:28.952Z,19.47
2017-06-22T01:46:55.477Z,19.93
2017-06-22T01:49:21.885Z,19.97
2017-06-22T01:51:48.373Z,17.93
2017-06-22T01:54:14.822Z,17.93
2017-06-22T01:56:41.305Z,17.90
2017-06-22T01:59:07.752Z,17.80
2017-06-22T02:01:34.416Z,18.00
2017-06-22T02:04:00.868Z,18.00
2017-06-22T02:06:27.559Z,17.90
2017-06-22T02:08:54.715Z,18.90
2017-06-22T02:11:21.980Z,17.47
2017-06-22T02:13:48.472Z,18.03
2017-06-22T02:16:14.908Z,16.83
2017-06-22T02:18:41.317Z,18.53
2017-06-22T02:21:08.212Z,17.90
2017-06-22T02:23:34.979Z,17.60
2017-06-22T02:26:01.498Z,19.20
2017-06-22T02:28:28.728Z,19.60
2017-06-22T02:30:55.210Z,18.03
2017-06-22T02:33:21.621Z,17.40
2017-06-22T02:35:48.868Z,17.50
2017-06-22T02:38:15.317Z,18.13
2017-06-22T02:40:42.358Z,17.70
2017-06-22T02:43:09.117Z,17.50
2017-06-22T02:45:35.789Z,18.23
2017-06-22T02:48:02.430Z,16.30
2017-06-22T02:50:28.973Z,17.70
2017-06-22T02:52:55.444Z,15.77
2017-06-22T02:55:22.581Z,17.17
2017-06-22T02:57:51.421Z,16.57
2017-06-22T03:00:18.673Z,17.37
2017-06-22T03:02:45.142Z,17.93
2017-06-22T03:05:11.601Z,17.20
2017-06-22T03:07:51.178Z,16.53
2017-06-22T03:10:18.538Z,17.30
2017-06-22T03:12:45.041Z,18.03
2017-06-22T03:15:11.500Z,16.27
2017-06-22T03:17:38.173Z,17.40
2017-06-22T03:20:04.553Z,16.30
2017-06-22T03:22:30.969Z,16.97
2017-06-22T03:24:58.670Z,17.43
2017-06-22T03:27:25.945Z,15.70
2017-06-22T03:29:52.352Z,17.33
2017-06-22T03:32:18.987Z,16.80
2017-06-22T03:34:45.461Z,17.73
2017-06-22T03:37:12.274Z,16.40
2017-06-22T03:39:38.865Z,17.70
2017-06-22T03:42:05.417Z,16.87
2017-06-22T03:44:31.929Z,16.97
2017-06-22T03:46:58.574Z,16.87
2017-06-22T03:49:25.061Z,16.00
2017-06-22T03:51:52.332Z,18.60
2017-06-22T03:54:18.889Z,17.20
2017-06-22T03:56:47.113Z,17.20
2017-06-22T03:59:13.801Z,18.97
2017-06-22T04:01:40.960Z,16.90
2017-06-22T04:04:07.767Z,18.73
2017-06-22T04:06:35.129Z,17.80
2017-06-22T04:09:01.741Z,17.07
2017-06-22T04:11:28.208Z,19.07
2017-06-22T04:13:54.850Z,18.20
2017-06-22T04:16:22.060Z,17.67
2017-06-22T04:18:48.465Z,17.73
2017-06-22T04:21:14.946Z,17.20
2017-06-22T04:23:41.399Z,16.13
2017-06-22T04:26:08.928Z,16.87
2017-06-22T04:28:35.493Z,19.10
2017-06-22T04:31:02.148Z,17.57
2017-06-22T04:33:28.608Z,17.97
2017-06-22T04:35:55.216Z,17.67
2017-06-22T04:38:21.772Z,19.13
2017-06-22T04:40:48.333Z,18.63
2017-06-22T04:43:15.054Z,19.10
2017-06-22T04:45:41.502Z,20.60
2017-06-22T04:48:07.982Z,19.77
2017-06-22T04:50:35.176Z,22.90
2017-06-22T04:53:01.582Z,23.30
2017-06-22T04:55:29.089Z,22.77
2017-06-22T04:57:56.552Z,23.90
2017-06-22T05:00:22.961Z,23.73
2017-06-22T05:02:49.584Z,23.33
2017-06-22T05:05:16.073Z,21.90
2017-06-22T05:07:42.758Z,23.10
2017-06-22T05:10:09.302Z,21.00
2017-06-22T05:12:35.804Z,22.80
2017-06-22T05:15:03.470Z,22.20
2017-06-22T05:17:30.044Z,21.13
2017-06-22T05:19:56.789Z,21.60
2017-06-22T05:22:23.221Z,22.33
2017-06-22T05:24:49.625Z,20.67
2017-06-22T05:27:16.513Z,22.90
2017-06-22T05:29:42.961Z,21.60
2017-06-22T05:32:09.701Z,21.60
2017-06-22T05:34:36.212Z,21.73
2017-06-22T05:37:03.012Z,22.87
2017-06-22T05:39:29.493Z,23.33
2017-06-22T05:41:57.384Z,22.77
2017-06-22T05:44:24.254Z,21.63
2017-06-22T05:46:50.694Z,24.63
2017-06-22T05:49:17.353Z,25.77
2017-06-22T05:51:43.938Z,25.60
2017-06-22T05:54:11.192Z,22.10
2017-06-22T05:56:37.893Z,23.80
2017-06-22T05:59:04.344Z,21.93
2017-06-22T06:01:30.797Z,22.33
2017-06-22T06:03:57.205Z,23.07
2017-06-22T06:06:23.617Z,22.00
2017-06-22T06:08:50.417Z,22.60
2017-06-22T06:11:17.016Z,23.20
2017-06-22T06:13:43.469Z,23.10
2017-06-22T06:16:10.207Z,22.10
2017-06-22T06:18:37.457Z,21.67
2017-06-22T06:21:03.940Z,22.20
2017-06-22T06:23:30.399Z,23.10
2017-06-22T06:25:56.797Z,23.20
2017-06-22T06:28:23.322Z,22.40
2017-06-22T06:30:50.576Z,24.73
2017-06-22T06:33:17.716Z,24.00
2017-06-22T06:35:46.201Z,22.60
2017-06-22T06:38:12.735Z,23.07
2017-06-22T06:40:40.072Z,22.63
2017-06-22T06:43:07.344Z,23.93
2017-06-22T06:45:33.883Z,22.23
2017-06-22T06:48:02.354Z,21.77
2017-06-22T06:50:29.636Z,23.00
2017-06-22T06:52:56.052Z,22.27
2017-06-22T06:55:23.557Z,22.63
2017-06-22T06:57:50.054Z,24.17
2017-06-22T07:00:16.530Z,24.30
2017-06-22T07:02:43.154Z,23.17
2017-06-22T07:05:09.822Z,22.87
2017-06-22T07:07:37.254Z,25.03
2017-06-22T07:10:03.916Z,23.63
2017-06-22T07:12:30.405Z,22.30
2017-06-22T07:14:57.057Z,24.23
2017-06-22T07:17:23.696Z,24.63
2017-06-22T07:19:50.267Z,23.57
2017-06-22T07:22:17.716Z,23.10
2017-06-22T07:24:44.976Z,23.17
2017-06-22T07:27:12.349Z,22.20
2017-06-22T07:29:39.069Z,24.60
2017-06-22T07:32:05.513Z,21.87
2017-06-22T07:34:32.712Z,21.50
2017-06-22T07:36:59.161Z,22.20
2017-06-22T07:39:25.565Z,21.13
2017-06-22T07:41:52.544Z,23.30
2017-06-22T07:44:20.213Z,20.93
2017-06-22T07:46:46.648Z,20.90
2017-06-22T07:49:13.396Z,21.10
2017-06-22T07:51:40.036Z,21.20
2017-06-22T07:54:07.954Z,21.53
2017-06-22T07:56:34.485Z,21.00
2017-06-22T07:59:01.024Z,24.73
2017-06-22T08:01:27.593Z,20.53
2017-06-22T08:03:54.048Z,19.40
2017-06-22T08:06:20.475Z,20.03
2017-06-22T08:08:47.010Z,19.53
2017-06-22T08:11:13.411Z,19.80
2017-06-22T08:13:46.377Z,19.23
2017-06-22T08:16:12.933Z,18.97
2017-06-22T08:18:39.481Z,20.43
2017-06-22T08:21:05.901Z,19.63
2017-06-22T08:23:32.541Z,18.33
2017-06-22T08:25:59.031Z,18.33
2017-06-22T08:28:25.477Z,18.50
2017-06-22T08:30:51.906Z,18.40
2017-06-22T08:33:18.313Z,17.80
2017-06-22T08:35:44.728Z,17.50
2017-06-22T08:38:11.172Z,19.87
2017-06-22T08:40:37.585Z,17.90
2017-06-22T08:43:04.017Z,17.27
2017-06-22T08:45:30.512Z,16.67
2017-06-22T08:47:56.934Z,16.53
2017-06-22T08:50:24.088Z,16.20
2017-06-22T08:52:50.552Z,15.40
2017-06-22T08:55:16.956Z,16.43
2017-06-22T08:57:43.375Z,15.10
2017-06-22T09:00:10.565Z,15.57
2017-06-22T09:02:36.964Z,15.67
2017-06-22T09:05:03.360Z,15.07
2017-06-22T09:07:29.806Z,14.33
2017-06-22T09:09:56.200Z,14.00
2017-06-22T09:12:22.648Z,13.77
2017-06-22T09:14:49.056Z,16.60
2017-06-22T09:17:15.469Z,14.13
2017-06-22T09:19:41.917Z,13.10
2017-06-22T09:22:08.320Z,11.13
2017-06-22T09:24:34.720Z,12.27
2017-06-22T09:27:01.180Z,13.70
2017-06-22T09:29:28.352Z,12.80
2017-06-22T09:31:54.752Z,12.60
2017-06-22T09:34:21.268Z,13.47
2017-06-22T09:36:47.673Z,12.70
2017-06-22T09:39:14.097Z,11.67
2017-06-22T09:41:40.637Z,12.10
2017-06-22T09:44:07.060Z,11.83
2017-06-22T09:46:33.505Z,12.40
2017-06-22T09:48:59.945Z,11.97
2017-06-22T09:51:26.348Z,11.80
2017-06-22T09:53:53.514Z,11.10
2017-06-22T09:56:19.965Z,11.20
2017-06-22T09:58:46.365Z,11.60
2017-06-22T10:01:12.777Z,10.53
2017-06-22T10:03:39.309Z,10.80
2017-06-22T10:06:05.758Z,10.10
2017-06-22T10:08:32.921Z,10.50
2017-06-22T10:10:59.421Z,10.67
2017-06-22T10:13:25.811Z,11.57
2017-06-22T10:15:52.223Z,10.03
2017-06-22T10:18:18.693Z,8.90
2017-06-22T10:20:45.109Z,11.83
2017-06-22T10:23:11.503Z,10.43
2017-06-22T10:25:37.949Z,10.63
2017-06-22T10:28:04.717Z,11.73
2017-06-22T10:30:31.252Z,11.87
2017-06-22T10:32:57.697Z,11.50
2017-06-22T10:35:24.104Z,10.30
2017-06-22T10:37:50.551Z,10.77
2017-06-22T10:40:16.992Z,11.53
2017-06-22T10:42:43.396Z,10.80
2017-06-22T10:45:09.796Z,11.63
2017-06-22T10:47:36.256Z,10.00
2017-06-22T10:50:02.674Z,9.70
2017-06-22T10:52:29.968Z,10.00
2017-06-22T10:54:56.452Z,10.90
2017-06-22T10:57:22.945Z,10.80
2017-06-22T10:59:50.157Z,9.73
2017-06-22T11:02:17.393Z,9.97
2017-06-22T11:04:44.557Z,10.33
2017-06-22T11:07:10.984Z,9.40
2017-06-22T11:09:38.173Z,9.70
2017-06-22T11:12:04.573Z,9.90
2017-06-22T11:14:31.020Z,9.00
2017-06-22T11:16:57.419Z,10.67
2017-06-22T11:19:23.840Z,10.33
2017-06-22T11:21:50.281Z,9.57
2017-06-22T11:24:16.701Z,9.50
2017-06-22T11:26:43.117Z,10.07
2017-06-22T11:29:10.554Z,10.20
2017-06-22T11:31:36.960Z,11.00
2017-06-22T11:34:04.085Z,10.37
2017-06-22T11:36:30.521Z,9.80
2017-06-22T11:38:58.516Z,11.33
2017-06-22T11:41:24.933Z,10.00
2017-06-22T11:43:51.400Z,11.50
2017-06-22T11:46:17.816Z,10.50
2017-06-22T11:48:44.417Z,10.70
2017-06-22T11:51:11.086Z,11.67
2017-06-22T11:53:37.566Z,10.07
2017-06-22T11:56:04.138Z,10.30
2017-06-22T11:58:30.588Z,10.47
2017-06-22T12:00:57.732Z,10.63
2017-06-22T12:03:24.880Z,9.93
2017-06-22T12:05:52.064Z,9.93
2017-06-22T12:08:19.428Z,9.97
2017-06-22T12:10:46.638Z,10.47
2017-06-22T12:13:13.817Z,11.97
2017-06-22T12:15:40.239Z,10.73
2017-06-22T12:18:07.172Z,11.57
2017-06-22T12:20:33.744Z,10.43
2017-06-22T12:23:00.176Z,10.30
2017-06-22T12:25:27.603Z,9.60
2017-06-22T12:27:54.094Z,10.70
2017-06-22T12:30:20.521Z,10.03
2017-06-22T12:32:47.000Z,15.10
2017-06-22T12:35:13.541Z,11.30
2017-06-22T12:37:39.956Z,10.60
2017-06-22T12:40:07.346Z,11.40
2017-06-22T12:42:33.848Z,10.80
2017-06-22T12:45:01.029Z,11.03
2017-06-22T12:47:27.468Z,10.43
2017-06-22T12:49:53.944Z,10.73
2017-06-22T12:52:20.353Z,10.50
2017-06-22T12:54:46.824Z,10.90
2017-06-22T12:57:14.017Z,10.80
2017-06-22T12:59:40.417Z,11.80
2017-06-22T13:02:06.867Z,10.60
2017-06-22T13:04:33.284Z,11.63
2017-06-22T13:06:59.701Z,10.43
2017-06-22T13:09:26.420Z,11.30
2017-06-22T13:11:52.832Z,11.30
2017-06-22T13:14:19.232Z,12.50
2017-06-22T13:16:45.679Z,10.93
2017-06-22T13:19:12.101Z,10.47
2017-06-22T13:21:38.505Z,11.70
2017-06-22T13:24:04.945Z,11.20
2017-06-22T13:26:32.113Z,10.00
2017-06-22T13:28:59.252Z,12.27
2017-06-22T13:31:26.566Z,12.63
2017-06-22T13:33:53.032Z,11.67
2017-06-22T13:36:19.423Z,12.17
2017-06-22T13:38:45.884Z,9.67
2017-06-22T13:41:12.285Z,11.20
2017-06-22T13:43:38.688Z,11.33
2017-06-22T13:46:05.241Z,11.13
2017-06-22T13:48:31.697Z,12.90
2017-06-22T13:50:58.153Z,11.53
2017-06-22T13:53:25.354Z,11.40
2017-06-22T13:55:51.780Z,12.33
2017-06-22T13:58:18.221Z,12.43
2017-06-22T14:00:44.693Z,12.47
2017-06-22T14:03:11.132Z,11.50
2017-06-22T14:05:37.592Z,12.17
2017-06-22T14:08:04.767Z,10.80
2017-06-22T14:10:32.173Z,12.30
2017-06-22T14:12:58.633Z,11.50
2017-06-22T14:15:25.780Z,11.80
2017-06-22T14:17:52.926Z,10.70
2017-06-22T14:20:20.108Z,11.83
2017-06-22T14:22:46.985Z,12.37
2017-06-22T14:25:13.440Z,11.77
2017-06-22T14:27:39.853Z,12.43
2017-06-22T14:30:06.260Z,10.80
2017-06-22T14:32:32.807Z,11.10
2017-06-22T14:34:59.226Z,12.27
2017-06-22T14:37:25.638Z,10.90
2017-06-22T14:39:52.085Z,11.20
2017-06-22T14:42:18.477Z,11.83
2017-06-22T14:44:44.891Z,11.40
2017-06-22T14:47:11.436Z,12.00
2017-06-22T14:49:38.022Z,11.50
2017-06-22T14:52:04.465Z,12.20
2017-06-22T14:54:30.897Z,11.53
2017-06-22T14:56:57.314Z,11.73
2017-06-22T14:59:24.041Z,11.93
2017-06-22T15:01:50.682Z,12.20
2017-06-22T15:04:17.113Z,12.93
2017-06-22T15:06:43.612Z,11.40
2017-06-22T15:09:10.494Z,11.90
2017-06-22T15:11:37.221Z,11.10
2017-06-22T15:14:03.721Z,12.17
2017-06-22T15:16:30.201Z,12.57
2017-06-22T15:18:56.603Z,9.67
2017-06-22T15:21:23.056Z,11.10
2017-06-22T15:23:49.516Z,9.67
2017-06-22T15:26:15.984Z,11.43
2017-06-22T15:28:42.396Z,10.50
2017-06-22T15:31:08.833Z,11.37
2017-06-22T15:33:35.260Z,12.60
2017-06-22T15:36:01.718Z,11.27
2017-06-22T15:38:28.120Z,11.03
2017-06-22T15:40:54.572Z,10.43
2017-06-22T15:43:20.992Z,11.20
2017-06-22T15:45:47.408Z,10.70
2017-06-22T15:48:13.928Z,10.80
2017-06-22T15:50:41.078Z,11.37
2017-06-22T15:53:08.267Z,10.93
2017-06-22T15:55:34.700Z,12.30
2017-06-22T15:58:01.161Z,12.27
2017-06-22T16:00:27.569Z,11.53
2017-06-22T16:02:54.016Z,10.57
2017-06-22T16:05:20.432Z,11.80
2017-06-22T16:07:46.899Z,12.00
2017-06-22T16:10:13.586Z,10.90
2017-06-22T16:12:40.085Z,10.67
2017-06-22T16:15:07.393Z,10.60
2017-06-22T16:17:33.836Z,11.40
2017-06-22T16:20:00.253Z,11.03
2017-06-22T16:22:26.734Z,10.23
2017-06-22T16:24:53.924Z,11.10
2017-06-22T16:27:20.376Z,10.73
2017-06-22T16:29:46.828Z,10.90
2017-06-22T16:32:13.221Z,10.50
2017-06-22T16:34:39.618Z,10.17
2017-06-22T16:37:06.882Z,12.40
2017-06-22T16:39:33.295Z,13.07
2017-06-22T16:41:59.709Z,11.80
2017-06-22T16:44:26.135Z,12.70
2017-06-22T16:46:52.561Z,13.20
2017-06-22T16:49:18.961Z,13.50
2017-06-22T16:51:45.405Z,12.50
2017-06-22T16:54:11.843Z,12.87
2017-06-22T16:56:38.305Z,12.77
2017-06-22T16:59:04.741Z,13.07
2017-06-22T17:01:31.138Z,12.10
2017-06-22T17:03:57.533Z,13.90
2017-06-22T17:06:24.176Z,12.60
2017-06-22T17:08:50.573Z,13.30
2017-06-22T17:11:16.969Z,12.20
2017-06-22T17:13:43.493Z,12.80
2017-06-22T17:16:09.965Z,12.60
2017-06-22T17:18:37.017Z,12.37
2017-06-22T17:21:03.452Z,12.83
2017-06-22T17:23:29.880Z,13.10
2017-06-22T17:25:56.283Z,12.23
2017-06-22T17:28:22.718Z,13.87
2017-06-22T17:30:49.109Z,13.50
2017-06-22T17:33:15.641Z,14.10
2017-06-22T17:35:42.045Z,12.67
2017-06-22T17:38:08.472Z,13.50
2017-06-22T17:40:34.905Z,13.13
2017-06-22T17:43:01.304Z,12.80
2017-06-22T17:45:27.726Z,13.80
2017-06-22T17:47:54.974Z,13.43
2017-06-22T17:50:22.133Z,14.33
2017-06-22T17:52:49.285Z,12.27
2017-06-22T17:55:15.864Z,13.83
2017-06-22T17:57:42.313Z,15.13
2017-06-22T18:00:08.720Z,14.03
2017-06-22T18:02:35.173Z,13.50
2017-06-22T18:05:01.902Z,13.70
2017-06-22T18:07:29.154Z,14.00
2017-06-22T18:09:55.595Z,14.70
2017-06-22T18:12:22.006Z,15.20
2017-06-22T18:14:49.750Z,14.33
2017-06-22T18:17:16.365Z,14.07
2017-06-22T18:19:43.500Z,13.93
2017-06-22T18:22:09.900Z,14.10
2017-06-22T18:24:36.332Z,13.90
2017-06-22T18:27:02.781Z,12.60
2017-06-22T18:29:36.288Z,14.10
2017-06-22T18:32:02.700Z,14.13
2017-06-22T18:34:29.111Z,14.67
2017-06-22T18:36:55.614Z,15.27
2017-06-22T18:39:22.761Z,14.77
2017-06-22T18:41:49.181Z,14.10
2017-06-22T18:44:15.717Z,13.43
2017-06-22T18:46:42.241Z,14.37
2017-06-22T18:49:08.644Z,13.43
2017-06-22T18:51:35.068Z,14.43
2017-06-22T18:54:01.500Z,14.83
2017-06-22T18:56:28.026Z,13.60
2017-06-22T18:58:54.421Z,13.73
2017-06-22T19:01:20.833Z,14.00
2017-06-22T19:03:47.276Z,13.80
2017-06-22T19:06:13.781Z,14.37
2017-06-22T19:08:40.189Z,14.67
2017-06-22T19:11:06.641Z,14.90
2017-06-22T19:13:33.053Z,15.20
2017-06-22T19:15:59.466Z,14.73
2017-06-22T19:18:25.930Z,14.50
2017-06-22T19:20:52.329Z,14.57
2017-06-22T19:23:19.495Z,13.90
2017-06-22T19:25:52.926Z,16.30
2017-06-22T19:28:19.372Z,14.53
2017-06-22T19:30:45.785Z,14.23
2017-06-22T19:33:12.356Z,14.40
2017-06-22T19:35:38.797Z,20.20
2017-06-22T19:38:05.323Z,19.40
2017-06-22T19:40:31.857Z,15.73
2017-06-22T19:42:58.257Z,14.43
2017-06-22T19:45:24.673Z,13.40
2017-06-22T19:47:51.181Z,14.00
2017-06-22T19:50:17.604Z,13.00
2017-06-22T19:52:44.756Z,14.50
2017-06-22T19:55:12.413Z,15.67
2017-06-22T19:57:38.921Z,14.50
2017-06-22T20:00:05.372Z,17.43
2017-06-22T20:02:31.828Z,15.03
2017-06-22T20:04:58.251Z,13.63
2017-06-22T20:07:25.453Z,14.80
2017-06-22T20:09:51.900Z,15.00
2017-06-22T20:12:18.312Z,14.10
2017-06-22T20:14:44.712Z,14.40
2017-06-22T20:17:12.228Z,14.27
2017-06-22T20:19:38.930Z,14.27
2017-06-22T20:22:05.362Z,14.97
2017-06-22T20:24:32.175Z,14.70
2017-06-22T20:29:48.170Z,14.77
2017-06-22T20:32:14.868Z,14.10
2017-06-22T20:34:41.396Z,14.40
2017-06-22T20:37:08.012Z,14.93
2017-06-22T20:39:35.885Z,13.60
2017-06-22T20:42:02.352Z,15.37
2017-06-22T20:44:28.795Z,14.23
2017-06-22T20:46:55.228Z,15.80
2017-06-22T20:49:21.925Z,14.90
2017-06-22T20:51:48.384Z,15.40
2017-06-22T20:54:14.813Z,15.67
2017-06-22T20:56:41.330Z,15.37
2017-06-22T20:59:07.746Z,15.37
2017-06-22T21:01:34.900Z,15.80
2017-06-22T21:04:02.176Z,13.47
2017-06-22T21:06:28.985Z,14.67
2017-06-22T21:08:55.423Z,14.03
2017-06-22T21:11:22.605Z,13.70
2017-06-22T21:13:49.218Z,15.30
2017-06-22T21:16:16.523Z,14.63
2017-06-22T21:18:42.972Z,14.60
2017-06-22T21:21:09.396Z,16.00
2017-06-22T21:23:35.821Z,15.23
2017-06-22T21:26:02.249Z,14.03
2017-06-22T21:28:28.704Z,14.70
2017-06-22T21:30:55.145Z,15.13
2017-06-22T21:33:21.565Z,14.40
2017-06-22T21:35:47.961Z,15.10
2017-06-22T21:38:14.445Z,14.70
2017-06-22T21:40:40.836Z,15.40
2017-06-22T21:43:07.254Z,14.40
2017-06-22T21:45:33.732Z,14.40
2017-06-22T21:48:00.148Z,14.77
2017-06-22T21:50:26.557Z,16.43
2017-06-22T21:52:53.057Z,16.20
2017-06-22T21:55:20.213Z,13.97
2017-06-22T21:57:47.457Z,15.60
2017-06-22T22:00:14.616Z,15.63
2017-06-22T22:02:41.025Z,14.80
2017-06-22T22:05:07.449Z,15.70
2017-06-22T22:07:33.889Z,15.27
2017-06-22T22:10:00.296Z,15.37
2017-06-22T22:12:26.925Z,15.73
2017-06-22T22:14:53.323Z,15.03
2017-06-22T22:17:19.804Z,14.80
2017-06-22T22:19:46.248Z,15.20
2017-06-22T22:22:12.653Z,15.40
2017-06-22T22:24:39.065Z,15.13
2017-06-22T22:27:05.581Z,15.83
2017-06-22T22:29:32.724Z,15.37
2017-06-22T22:31:59.858Z,16.00
2017-06-22T22:34:26.300Z,15.10
2017-06-22T22:36:53.517Z,14.83
2017-06-22T22:39:20.080Z,15.93
2017-06-22T22:41:46.493Z,14.70
2017-06-22T22:44:12.926Z,14.43
2017-06-22T22:46:39.396Z,16.20
2017-06-22T22:49:06.551Z,15.00
2017-06-22T22:51:33.051Z,15.10
2017-06-22T22:53:59.496Z,16.00
2017-06-22T22:56:26.019Z,16.33
2017-06-22T22:58:52.456Z,14.40
2017-06-22T23:01:18.991Z,15.20
2017-06-22T23:03:45.387Z,15.53
2017-06-22T23:06:11.843Z,16.10
2017-06-22T23:08:38.308Z,15.30
2017-06-22T23:11:05.448Z,16.70
2017-06-22T23:13:31.852Z,16.37
2017-06-22T23:15:58.300Z,14.97
2017-06-22T23:18:24.774Z,16.53
2017-06-22T23:20:51.928Z,15.87
2017-06-22T23:23:18.332Z,15.30
2017-06-22T23:25:45.536Z,15.87
2017-06-22T23:28:12.001Z,16.60
2017-06-22T23:30:38.408Z,16.00
2017-06-22T23:33:04.868Z,15.40
2017-06-22T23:35:31.321Z,16.27
2017-06-22T23:37:58.537Z,16.43
2017-06-22T23:40:24.977Z,15.20
2017-06-22T23:42:51.368Z,16.37
2017-06-22T23:45:17.777Z,15.40
2017-06-22T23:47:44.373Z,16.10
2017-06-22T23:50:10.773Z,15.33
2017-06-22T23:52:37.164Z,17.13
2017-06-22T23:55:03.612Z,15.93
2017-06-22T23:57:30.816Z,16.03
2017-06-22T23:59:57.274Z,16.47
